sensor_id;sensor_type;location;lat;lon;timestamp;P1;durP1;ratioP1;P2;durP2;ratioP2
42296;SDS011;28985;47.456;19.016;2022-10-31T00:01:15;231.02;;;219.48;;
42296;SDS011;28985;47.456;19.016;2022-10-31T00:03:44;226.55;;;215.07;;
42296;SDS011;28985;47.456;19.016;2022-10-31T00:06:10;231.85;;;220.90;;
42296;SDS011;28985;47.456;19.016;2022-10-31T00:08:37;231.85;;;220.57;;
42296;SDS011;28985;47.456;19.016;2022-10-31T00:11:07;234.63;;;223.48;;
42296;SDS011;28985;47.456;19.016;2022-10-31T00:13:34;230.25;;;218.77;;
42296;SDS011;28985;47.456;19.016;2022-10-31T00:16:01;231.32;;;220.18;;
42296;SDS011;28985;47.456;19.016;2022-10-31T00:18:28;221.65;;;210.85;;
42296;SDS011;28985;47.456;19.016;2022-10-31T00:21:01;225.52;;;213.85;;
42296;SDS011;28985;47.456;19.016;2022-10-31T00:23:28;206.65;;;195.95;;
42296;SDS011;28985;47.456;19.016;2022-10-31T00:25:59;215.85;;;204.68;;
42296;SDS011;28985;47.456;19.016;2022-10-31T00:28:28;214.20;;;203.55;;
42296;SDS011;28985;47.456;19.016;2022-10-31T00:31:03;215.63;;;204.88;;
42296;SDS011;28985;47.456;19.016;2022-10-31T00:33:33;214.10;;;202.93;;
42296;SDS011;28985;47.456;19.016;2022-10-31T00:36:00;216.82;;;205.40;;
42296;SDS011;28985;47.456;19.016;2022-10-31T00:38:27;210.73;;;200.60;;
42296;SDS011;28985;47.456;19.016;2022-10-31T00:40:54;212.38;;;201.90;;
42296;SDS011;28985;47.456;19.016;2022-10-31T00:43:20;212.65;;;201.90;;
42296;SDS011;28985;47.456;19.016;2022-10-31T00:45:47;208.48;;;197.80;;
42296;SDS011;28985;47.456;19.016;2022-10-31T00:48:13;210.07;;;199.48;;
42296;SDS011;28985;47.456;19.016;2022-10-31T00:50:40;204.43;;;194.50;;
42296;SDS011;28985;47.456;19.016;2022-10-31T00:53:07;207.32;;;196.88;;
42296;SDS011;28985;47.456;19.016;2022-10-31T00:55:34;203.80;;;193.77;;
42296;SDS011;28985;47.456;19.016;2022-10-31T00:58:00;198.18;;;188.60;;
42296;SDS011;28985;47.456;19.016;2022-10-31T01:00:27;201.77;;;191.80;;
42296;SDS011;28985;47.456;19.016;2022-10-31T01:02:54;209.38;;;199.05;;
42296;SDS011;28985;47.456;19.016;2022-10-31T01:05:21;197.90;;;188.32;;
42296;SDS011;28985;47.456;19.016;2022-10-31T01:07:47;201.95;;;192.23;;
42296;SDS011;28985;47.456;19.016;2022-10-31T01:10:14;202.82;;;193.40;;
42296;SDS011;28985;47.456;19.016;2022-10-31T01:12:42;197.95;;;188.60;;
42296;SDS011;28985;47.456;19.016;2022-10-31T01:15:11;197.38;;;187.77;;
42296;SDS011;28985;47.456;19.016;2022-10-31T01:17:40;190.70;;;182.32;;
42296;SDS011;28985;47.456;19.016;2022-10-31T01:20:07;192.43;;;183.63;;
42296;SDS011;28985;47.456;19.016;2022-10-31T01:22:34;191.52;;;182.95;;
42296;SDS011;28985;47.456;19.016;2022-10-31T01:25:01;193.75;;;184.85;;
42296;SDS011;28985;47.456;19.016;2022-10-31T01:27:27;188.85;;;180.38;;
42296;SDS011;28985;47.456;19.016;2022-10-31T01:29:54;192.25;;;183.60;;
42296;SDS011;28985;47.456;19.016;2022-10-31T01:32:20;190.60;;;182.27;;
42296;SDS011;28985;47.456;19.016;2022-10-31T01:34:47;194.48;;;185.75;;
42296;SDS011;28985;47.456;19.016;2022-10-31T01:37:13;186.65;;;178.55;;
42296;SDS011;28985;47.456;19.016;2022-10-31T01:39:40;186.32;;;178.02;;
42296;SDS011;28985;47.456;19.016;2022-10-31T01:42:07;189.00;;;180.48;;
42296;SDS011;28985;47.456;19.016;2022-10-31T01:47:14;189.02;;;180.60;;
42296;SDS011;28985;47.456;19.016;2022-10-31T01:49:51;184.27;;;175.85;;
42296;SDS011;28985;47.456;19.016;2022-10-31T01:54:58;187.20;;;179.05;;
42296;SDS011;28985;47.456;19.016;2022-10-31T01:57:27;171.52;;;164.10;;
42296;SDS011;28985;47.456;19.016;2022-10-31T01:59:57;176.35;;;168.10;;
42296;SDS011;28985;47.456;19.016;2022-10-31T02:02:27;175.48;;;168.00;;
42296;SDS011;28985;47.456;19.016;2022-10-31T02:04:56;180.25;;;172.40;;
42296;SDS011;28985;47.456;19.016;2022-10-31T02:07:35;173.75;;;165.98;;
42296;SDS011;28985;47.456;19.016;2022-10-31T02:10:05;172.18;;;164.60;;
42296;SDS011;28985;47.456;19.016;2022-10-31T02:12:32;178.23;;;170.50;;
42296;SDS011;28985;47.456;19.016;2022-10-31T02:15:02;179.80;;;172.18;;
42296;SDS011;28985;47.456;19.016;2022-10-31T02:17:29;183.80;;;175.90;;
42296;SDS011;28985;47.456;19.016;2022-10-31T02:33:52;168.43;;;160.38;;
42296;SDS011;28985;47.456;19.016;2022-10-31T02:36:26;167.00;;;159.48;;
42296;SDS011;28985;47.456;19.016;2022-10-31T02:41:52;176.77;;;168.77;;
42296;SDS011;28985;47.456;19.016;2022-10-31T02:47:03;170.85;;;162.82;;
42296;SDS011;28985;47.456;19.016;2022-10-31T02:52:27;197.63;;;189.00;;
42296;SDS011;28985;47.456;19.016;2022-10-31T02:54:54;200.90;;;191.90;;
42296;SDS011;28985;47.456;19.016;2022-10-31T02:57:25;206.55;;;196.98;;
42296;SDS011;28985;47.456;19.016;2022-10-31T02:59:57;221.63;;;211.15;;
42296;SDS011;28985;47.456;19.016;2022-10-31T03:02:39;210.85;;;201.85;;
42296;SDS011;28985;47.456;19.016;2022-10-31T03:08:35;225.27;;;215.80;;
42296;SDS011;28985;47.456;19.016;2022-10-31T03:11:09;226.80;;;216.85;;
42296;SDS011;28985;47.456;19.016;2022-10-31T03:13:41;230.75;;;220.50;;
42296;SDS011;28985;47.456;19.016;2022-10-31T03:16:29;218.25;;;208.57;;
42296;SDS011;28985;47.456;19.016;2022-10-31T03:19:09;227.48;;;217.50;;
42296;SDS011;28985;47.456;19.016;2022-10-31T03:24:22;232.93;;;222.68;;
42296;SDS011;28985;47.456;19.016;2022-10-31T03:26:54;234.30;;;224.48;;
42296;SDS011;28985;47.456;19.016;2022-10-31T03:29:23;236.82;;;226.30;;
42296;SDS011;28985;47.456;19.016;2022-10-31T03:31:57;238.88;;;228.88;;
42296;SDS011;28985;47.456;19.016;2022-10-31T03:34:26;225.32;;;215.90;;
42296;SDS011;28985;47.456;19.016;2022-10-31T03:36:57;224.07;;;214.60;;
42296;SDS011;28985;47.456;19.016;2022-10-31T03:39:27;221.43;;;212.00;;
42296;SDS011;28985;47.456;19.016;2022-10-31T03:42:06;214.95;;;205.88;;
42296;SDS011;28985;47.456;19.016;2022-10-31T03:44:36;225.10;;;215.55;;
42296;SDS011;28985;47.456;19.016;2022-10-31T03:47:08;221.30;;;211.77;;
42296;SDS011;28985;47.456;19.016;2022-10-31T03:49:34;222.30;;;212.50;;
42296;SDS011;28985;47.456;19.016;2022-10-31T03:54:56;226.35;;;216.30;;
42296;SDS011;28985;47.456;19.016;2022-10-31T03:57:56;212.80;;;203.45;;
42296;SDS011;28985;47.456;19.016;2022-10-31T04:00:30;213.23;;;204.00;;
42296;SDS011;28985;47.456;19.016;2022-10-31T04:03:05;202.18;;;193.27;;
42296;SDS011;28985;47.456;19.016;2022-10-31T04:05:38;203.95;;;195.07;;
42296;SDS011;28985;47.456;19.016;2022-10-31T04:08:09;207.15;;;197.73;;
42296;SDS011;28985;47.456;19.016;2022-10-31T04:10:41;205.00;;;196.38;;
42296;SDS011;28985;47.456;19.016;2022-10-31T04:13:11;203.90;;;194.90;;
42296;SDS011;28985;47.456;19.016;2022-10-31T04:15:42;201.05;;;192.23;;
42296;SDS011;28985;47.456;19.016;2022-10-31T04:18:11;208.63;;;199.23;;
42296;SDS011;28985;47.456;19.016;2022-10-31T04:20:39;223.57;;;213.88;;
42296;SDS011;28985;47.456;19.016;2022-10-31T04:25:42;199.90;;;190.88;;
42296;SDS011;28985;47.456;19.016;2022-10-31T04:28:09;201.38;;;192.73;;
42296;SDS011;28985;47.456;19.016;2022-10-31T04:30:35;198.90;;;190.27;;
42296;SDS011;28985;47.456;19.016;2022-10-31T04:33:02;217.85;;;208.27;;
42296;SDS011;28985;47.456;19.016;2022-10-31T04:35:29;216.32;;;207.00;;
42296;SDS011;28985;47.456;19.016;2022-10-31T04:37:55;215.30;;;205.93;;
42296;SDS011;28985;47.456;19.016;2022-10-31T04:40:22;210.85;;;201.68;;
42296;SDS011;28985;47.456;19.016;2022-10-31T04:42:48;216.05;;;206.57;;
42296;SDS011;28985;47.456;19.016;2022-10-31T04:45:15;211.57;;;202.45;;
42296;SDS011;28985;47.456;19.016;2022-10-31T04:47:46;208.65;;;199.82;;
42296;SDS011;28985;47.456;19.016;2022-10-31T04:50:13;210.02;;;200.85;;
42296;SDS011;28985;47.456;19.016;2022-10-31T04:52:40;200.23;;;191.40;;
42296;SDS011;28985;47.456;19.016;2022-10-31T04:55:10;209.55;;;200.57;;
42296;SDS011;28985;47.456;19.016;2022-10-31T04:57:41;210.27;;;200.77;;
42296;SDS011;28985;47.456;19.016;2022-10-31T05:00:09;200.45;;;191.52;;
42296;SDS011;28985;47.456;19.016;2022-10-31T05:02:43;199.85;;;190.63;;
42296;SDS011;28985;47.456;19.016;2022-10-31T05:05:14;198.80;;;189.80;;
42296;SDS011;28985;47.456;19.016;2022-10-31T05:07:42;205.52;;;196.00;;
42296;SDS011;28985;47.456;19.016;2022-10-31T05:10:11;202.05;;;193.13;;
42296;SDS011;28985;47.456;19.016;2022-10-31T05:12:47;205.55;;;196.90;;
42296;SDS011;28985;47.456;19.016;2022-10-31T05:15:15;206.35;;;197.50;;
42296;SDS011;28985;47.456;19.016;2022-10-31T05:17:43;213.88;;;204.82;;
42296;SDS011;28985;47.456;19.016;2022-10-31T05:20:10;218.75;;;209.32;;
42296;SDS011;28985;47.456;19.016;2022-10-31T05:22:42;217.48;;;208.27;;
42296;SDS011;28985;47.456;19.016;2022-10-31T05:25:09;216.90;;;207.80;;
42296;SDS011;28985;47.456;19.016;2022-10-31T05:27:40;215.63;;;206.38;;
42296;SDS011;28985;47.456;19.016;2022-10-31T05:30:08;212.18;;;202.82;;
42296;SDS011;28985;47.456;19.016;2022-10-31T05:32:43;222.32;;;212.95;;
42296;SDS011;28985;47.456;19.016;2022-10-31T05:35:12;210.85;;;201.75;;
42296;SDS011;28985;47.456;19.016;2022-10-31T05:37:40;221.25;;;211.73;;
42296;SDS011;28985;47.456;19.016;2022-10-31T05:40:07;222.38;;;213.20;;
42296;SDS011;28985;47.456;19.016;2022-10-31T05:42:35;227.85;;;218.13;;
42296;SDS011;28985;47.456;19.016;2022-10-31T05:45:04;232.48;;;223.00;;
42296;SDS011;28985;47.456;19.016;2022-10-31T05:47:31;237.63;;;227.25;;
42296;SDS011;28985;47.456;19.016;2022-10-31T05:49:57;233.43;;;223.65;;
42296;SDS011;28985;47.456;19.016;2022-10-31T05:52:24;246.95;;;236.38;;
42296;SDS011;28985;47.456;19.016;2022-10-31T05:54:50;231.77;;;222.00;;
42296;SDS011;28985;47.456;19.016;2022-10-31T05:57:17;243.93;;;233.68;;
42296;SDS011;28985;47.456;19.016;2022-10-31T05:59:43;241.25;;;231.25;;
42296;SDS011;28985;47.456;19.016;2022-10-31T06:02:10;234.40;;;224.40;;
42296;SDS011;28985;47.456;19.016;2022-10-31T06:04:36;229.13;;;219.35;;
42296;SDS011;28985;47.456;19.016;2022-10-31T06:07:03;230.32;;;220.32;;
42296;SDS011;28985;47.456;19.016;2022-10-31T06:09:29;205.48;;;196.90;;
42296;SDS011;28985;47.456;19.016;2022-10-31T06:11:56;207.25;;;198.45;;
42296;SDS011;28985;47.456;19.016;2022-10-31T06:14:22;212.57;;;203.10;;
42296;SDS011;28985;47.456;19.016;2022-10-31T06:16:49;220.95;;;212.02;;
42296;SDS011;28985;47.456;19.016;2022-10-31T06:19:16;233.77;;;223.73;;
42296;SDS011;28985;47.456;19.016;2022-10-31T06:21:42;242.48;;;232.50;;
42296;SDS011;28985;47.456;19.016;2022-10-31T06:24:09;243.68;;;233.43;;
42296;SDS011;28985;47.456;19.016;2022-10-31T06:26:35;234.60;;;224.98;;
42296;SDS011;28985;47.456;19.016;2022-10-31T06:29:02;247.27;;;236.98;;
42296;SDS011;28985;47.456;19.016;2022-10-31T06:31:29;243.98;;;233.65;;
42296;SDS011;28985;47.456;19.016;2022-10-31T06:33:56;254.77;;;243.88;;
42296;SDS011;28985;47.456;19.016;2022-10-31T06:36:23;256.58;;;245.95;;
42296;SDS011;28985;47.456;19.016;2022-10-31T06:38:49;260.38;;;249.10;;
42296;SDS011;28985;47.456;19.016;2022-10-31T06:41:16;256.42;;;245.18;;
42296;SDS011;28985;47.456;19.016;2022-10-31T06:43:45;280.40;;;268.52;;
42296;SDS011;28985;47.456;19.016;2022-10-31T06:46:12;254.65;;;243.60;;
42296;SDS011;28985;47.456;19.016;2022-10-31T06:48:40;253.73;;;243.05;;
42296;SDS011;28985;47.456;19.016;2022-10-31T06:51:08;271.63;;;260.52;;
42296;SDS011;28985;47.456;19.016;2022-10-31T06:53:35;278.55;;;266.75;;
42296;SDS011;28985;47.456;19.016;2022-10-31T06:56:01;262.20;;;251.35;;
42296;SDS011;28985;47.456;19.016;2022-10-31T06:58:28;269.35;;;257.90;;
42296;SDS011;28985;47.456;19.016;2022-10-31T07:00:54;257.63;;;246.38;;
42296;SDS011;28985;47.456;19.016;2022-10-31T07:03:21;260.65;;;249.70;;
42296;SDS011;28985;47.456;19.016;2022-10-31T07:05:48;257.73;;;246.70;;
42296;SDS011;28985;47.456;19.016;2022-10-31T07:08:14;253.32;;;242.45;;
42296;SDS011;28985;47.456;19.016;2022-10-31T07:10:41;255.50;;;244.52;;
42296;SDS011;28985;47.456;19.016;2022-10-31T07:13:13;251.25;;;240.05;;
42296;SDS011;28985;47.456;19.016;2022-10-31T07:15:41;244.35;;;233.35;;
42296;SDS011;28985;47.456;19.016;2022-10-31T07:18:09;239.13;;;228.93;;
42296;SDS011;28985;47.456;19.016;2022-10-31T07:20:36;240.88;;;230.07;;
42296;SDS011;28985;47.456;19.016;2022-10-31T07:23:03;222.93;;;213.05;;
42296;SDS011;28985;47.456;19.016;2022-10-31T07:25:31;224.57;;;214.07;;
42296;SDS011;28985;47.456;19.016;2022-10-31T07:27:57;232.50;;;222.00;;
42296;SDS011;28985;47.456;19.016;2022-10-31T07:30:24;228.35;;;218.35;;
42296;SDS011;28985;47.456;19.016;2022-10-31T07:32:51;230.05;;;220.20;;
42296;SDS011;28985;47.456;19.016;2022-10-31T07:35:18;220.15;;;210.73;;
42296;SDS011;28985;47.456;19.016;2022-10-31T07:37:55;206.55;;;196.85;;
42296;SDS011;28985;47.456;19.016;2022-10-31T07:40:23;192.27;;;183.52;;
42296;SDS011;28985;47.456;19.016;2022-10-31T07:42:51;204.52;;;194.88;;
42296;SDS011;28985;47.456;19.016;2022-10-31T07:45:19;212.30;;;201.60;;
42296;SDS011;28985;47.456;19.016;2022-10-31T07:47:47;213.80;;;203.60;;
42296;SDS011;28985;47.456;19.016;2022-10-31T07:50:16;207.95;;;198.07;;
42296;SDS011;28985;47.456;19.016;2022-10-31T07:52:45;213.30;;;203.55;;
42296;SDS011;28985;47.456;19.016;2022-10-31T07:55:12;217.75;;;207.55;;
42296;SDS011;28985;47.456;19.016;2022-10-31T07:57:38;215.95;;;205.75;;
42296;SDS011;28985;47.456;19.016;2022-10-31T08:00:06;213.93;;;203.60;;
42296;SDS011;28985;47.456;19.016;2022-10-31T08:02:35;214.93;;;205.00;;
42296;SDS011;28985;47.456;19.016;2022-10-31T08:05:01;219.98;;;209.10;;
42296;SDS011;28985;47.456;19.016;2022-10-31T08:07:28;223.82;;;213.18;;
42296;SDS011;28985;47.456;19.016;2022-10-31T08:09:55;222.55;;;211.63;;
42296;SDS011;28985;47.456;19.016;2022-10-31T08:12:22;222.88;;;212.57;;
42296;SDS011;28985;47.456;19.016;2022-10-31T08:14:49;212.55;;;202.75;;
42296;SDS011;28985;47.456;19.016;2022-10-31T08:17:16;195.75;;;186.93;;
42296;SDS011;28985;47.456;19.016;2022-10-31T08:19:42;187.63;;;178.88;;
42296;SDS011;28985;47.456;19.016;2022-10-31T08:22:09;197.18;;;187.73;;
42296;SDS011;28985;47.456;19.016;2022-10-31T08:24:35;198.40;;;189.00;;
42296;SDS011;28985;47.456;19.016;2022-10-31T08:27:02;196.23;;;187.02;;
42296;SDS011;28985;47.456;19.016;2022-10-31T08:29:28;204.70;;;195.40;;
42296;SDS011;28985;47.456;19.016;2022-10-31T08:31:55;198.27;;;189.00;;
42296;SDS011;28985;47.456;19.016;2022-10-31T08:34:24;198.50;;;189.25;;
42296;SDS011;28985;47.456;19.016;2022-10-31T08:36:51;199.82;;;190.93;;
42296;SDS011;28985;47.456;19.016;2022-10-31T08:39:18;193.05;;;184.30;;
42296;SDS011;28985;47.456;19.016;2022-10-31T08:41:44;200.95;;;192.30;;
42296;SDS011;28985;47.456;19.016;2022-10-31T08:44:11;202.23;;;192.45;;
42296;SDS011;28985;47.456;19.016;2022-10-31T08:46:37;221.80;;;211.43;;
42296;SDS011;28985;47.456;19.016;2022-10-31T08:49:04;214.48;;;204.75;;
42296;SDS011;28985;47.456;19.016;2022-10-31T08:51:30;216.57;;;206.27;;
42296;SDS011;28985;47.456;19.016;2022-10-31T08:53:57;210.88;;;201.10;;
42296;SDS011;28985;47.456;19.016;2022-10-31T08:56:24;209.98;;;200.35;;
42296;SDS011;28985;47.456;19.016;2022-10-31T08:58:52;203.90;;;194.55;;
42296;SDS011;28985;47.456;19.016;2022-10-31T09:01:19;204.40;;;195.20;;
42296;SDS011;28985;47.456;19.016;2022-10-31T09:03:45;205.13;;;195.95;;
42296;SDS011;28985;47.456;19.016;2022-10-31T09:06:12;207.40;;;198.18;;
42296;SDS011;28985;47.456;19.016;2022-10-31T09:08:38;208.05;;;198.57;;
42296;SDS011;28985;47.456;19.016;2022-10-31T09:11:05;201.55;;;192.65;;
42296;SDS011;28985;47.456;19.016;2022-10-31T09:13:32;202.20;;;193.52;;
42296;SDS011;28985;47.456;19.016;2022-10-31T09:16:06;204.00;;;195.02;;
42296;SDS011;28985;47.456;19.016;2022-10-31T09:18:33;197.38;;;188.77;;
42296;SDS011;28985;47.456;19.016;2022-10-31T09:21:00;202.73;;;193.57;;
42296;SDS011;28985;47.456;19.016;2022-10-31T09:23:27;211.32;;;201.55;;
42296;SDS011;28985;47.456;19.016;2022-10-31T09:25:54;211.75;;;202.55;;
42296;SDS011;28985;47.456;19.016;2022-10-31T09:28:22;213.10;;;203.50;;
42296;SDS011;28985;47.456;19.016;2022-10-31T09:30:50;202.30;;;193.57;;
42296;SDS011;28985;47.456;19.016;2022-10-31T09:33:18;206.00;;;197.00;;
42296;SDS011;28985;47.456;19.016;2022-10-31T09:35:45;210.90;;;201.98;;
42296;SDS011;28985;47.456;19.016;2022-10-31T09:38:15;213.90;;;204.82;;
42296;SDS011;28985;47.456;19.016;2022-10-31T09:40:49;213.75;;;203.98;;
42296;SDS011;28985;47.456;19.016;2022-10-31T09:51:29;195.18;;;186.55;;
42296;SDS011;28985;47.456;19.016;2022-10-31T09:54:05;198.35;;;188.85;;
42296;SDS011;28985;47.456;19.016;2022-10-31T09:56:37;208.80;;;199.18;;
42296;SDS011;28985;47.456;19.016;2022-10-31T09:59:05;215.93;;;206.73;;
42296;SDS011;28985;47.456;19.016;2022-10-31T10:01:52;212.48;;;202.63;;
42296;SDS011;28985;47.456;19.016;2022-10-31T10:07:19;198.93;;;190.35;;
42296;SDS011;28985;47.456;19.016;2022-10-31T10:09:52;195.75;;;186.65;;
42296;SDS011;28985;47.456;19.016;2022-10-31T10:21:02;197.18;;;188.57;;
42296;SDS011;28985;47.456;19.016;2022-10-31T10:26:34;196.82;;;188.20;;
42296;SDS011;28985;47.456;19.016;2022-10-31T10:31:48;197.10;;;188.90;;
42296;SDS011;28985;47.456;19.016;2022-10-31T10:34:19;200.05;;;190.80;;
42296;SDS011;28985;47.456;19.016;2022-10-31T10:36:56;194.50;;;185.82;;
42296;SDS011;28985;47.456;19.016;2022-10-31T10:39:29;197.32;;;188.68;;
42296;SDS011;28985;47.456;19.016;2022-10-31T10:42:13;209.93;;;201.23;;
42296;SDS011;28985;47.456;19.016;2022-10-31T10:44:59;198.15;;;189.40;;
42296;SDS011;28985;47.456;19.016;2022-10-31T10:47:52;200.93;;;192.23;;
42296;SDS011;28985;47.456;19.016;2022-10-31T10:50:32;206.25;;;197.93;;
42296;SDS011;28985;47.456;19.016;2022-10-31T10:53:25;207.23;;;198.45;;
42296;SDS011;28985;47.456;19.016;2022-10-31T10:58:30;210.98;;;202.20;;
42296;SDS011;28985;47.456;19.016;2022-10-31T11:00:57;218.85;;;209.55;;
42296;SDS011;28985;47.456;19.016;2022-10-31T11:03:23;213.95;;;204.60;;
42296;SDS011;28985;47.456;19.016;2022-10-31T11:08:31;205.18;;;196.55;;
42296;SDS011;28985;47.456;19.016;2022-10-31T11:11:41;203.95;;;195.23;;
42296;SDS011;28985;47.456;19.016;2022-10-31T11:14:00;205.05;;;196.40;;
42296;SDS011;28985;47.456;19.016;2022-10-31T11:19:07;202.10;;;193.73;;
42296;SDS011;28985;47.456;19.016;2022-10-31T11:21:34;197.27;;;188.93;;
42296;SDS011;28985;47.456;19.016;2022-10-31T11:26:37;206.95;;;198.40;;
42296;SDS011;28985;47.456;19.016;2022-10-31T11:29:09;207.05;;;198.52;;
42296;SDS011;28985;47.456;19.016;2022-10-31T11:31:42;205.95;;;197.13;;
42296;SDS011;28985;47.456;19.016;2022-10-31T11:34:15;206.18;;;197.82;;
42296;SDS011;28985;47.456;19.016;2022-10-31T11:37:04;205.00;;;196.38;;
42296;SDS011;28985;47.456;19.016;2022-10-31T11:39:44;204.02;;;195.18;;
42296;SDS011;28985;47.456;19.016;2022-10-31T11:42:20;207.82;;;199.05;;
42296;SDS011;28985;47.456;19.016;2022-10-31T11:44:48;214.55;;;205.18;;
42296;SDS011;28985;47.456;19.016;2022-10-31T11:47:17;213.75;;;204.98;;
42296;SDS011;28985;47.456;19.016;2022-10-31T11:49:51;191.18;;;182.80;;
42296;SDS011;28985;47.456;19.016;2022-10-31T11:54:55;202.02;;;193.38;;
42296;SDS011;28985;47.456;19.016;2022-10-31T11:57:25;198.10;;;189.88;;
42296;SDS011;28985;47.456;19.016;2022-10-31T11:59:53;203.20;;;194.88;;
42296;SDS011;28985;47.456;19.016;2022-10-31T12:02:20;207.68;;;199.05;;
42296;SDS011;28985;47.456;19.016;2022-10-31T12:04:53;203.85;;;195.60;;
42296;SDS011;28985;47.456;19.016;2022-10-31T12:07:27;204.70;;;196.25;;
42296;SDS011;28985;47.456;19.016;2022-10-31T12:09:54;209.43;;;200.35;;
42296;SDS011;28985;47.456;19.016;2022-10-31T12:12:31;203.68;;;195.02;;
42296;SDS011;28985;47.456;19.016;2022-10-31T12:15:32;195.10;;;186.90;;
42296;SDS011;28985;47.456;19.016;2022-10-31T12:25:51;210.05;;;201.25;;
42296;SDS011;28985;47.456;19.016;2022-10-31T12:31:46;202.90;;;194.02;;
42296;SDS011;28985;47.456;19.016;2022-10-31T12:56:50;206.95;;;198.43;;
42296;SDS011;28985;47.456;19.016;2022-10-31T13:01:55;212.18;;;203.55;;
42296;SDS011;28985;47.456;19.016;2022-10-31T13:04:34;206.93;;;198.02;;
42296;SDS011;28985;47.456;19.016;2022-10-31T13:07:03;208.77;;;200.23;;
42296;SDS011;28985;47.456;19.016;2022-10-31T13:09:38;199.18;;;190.63;;
42296;SDS011;28985;47.456;19.016;2022-10-31T13:12:12;194.52;;;186.23;;
42296;SDS011;28985;47.456;19.016;2022-10-31T13:14:43;197.80;;;189.68;;
42296;SDS011;28985;47.456;19.016;2022-10-31T13:17:21;200.68;;;192.10;;
42296;SDS011;28985;47.456;19.016;2022-10-31T13:19:53;205.43;;;197.02;;
42296;SDS011;28985;47.456;19.016;2022-10-31T13:22:29;201.73;;;193.30;;
42296;SDS011;28985;47.456;19.016;2022-10-31T13:27:26;205.07;;;196.77;;
42296;SDS011;28985;47.456;19.016;2022-10-31T13:32:39;198.00;;;189.77;;
42296;SDS011;28985;47.456;19.016;2022-10-31T13:35:14;185.85;;;177.98;;
42296;SDS011;28985;47.456;19.016;2022-10-31T13:45:54;188.00;;;180.32;;
42296;SDS011;28985;47.456;19.016;2022-10-31T13:48:56;192.88;;;184.65;;
42296;SDS011;28985;47.456;19.016;2022-10-31T13:51:24;190.18;;;182.52;;
42296;SDS011;28985;47.456;19.016;2022-10-31T13:56:21;192.35;;;184.55;;
42296;SDS011;28985;47.456;19.016;2022-10-31T13:58:58;200.13;;;191.98;;
42296;SDS011;28985;47.456;19.016;2022-10-31T14:01:25;199.35;;;191.27;;
42296;SDS011;28985;47.456;19.016;2022-10-31T14:03:59;193.52;;;185.77;;
42296;SDS011;28985;47.456;19.016;2022-10-31T14:06:43;188.77;;;180.55;;
42296;SDS011;28985;47.456;19.016;2022-10-31T14:09:24;184.35;;;176.82;;
42296;SDS011;28985;47.456;19.016;2022-10-31T14:11:53;181.80;;;174.18;;
42296;SDS011;28985;47.456;19.016;2022-10-31T14:14:23;184.07;;;176.63;;
42296;SDS011;28985;47.456;19.016;2022-10-31T14:16:57;179.80;;;172.45;;
42296;SDS011;28985;47.456;19.016;2022-10-31T14:19:24;178.10;;;170.82;;
42296;SDS011;28985;47.456;19.016;2022-10-31T14:21:52;183.15;;;175.55;;
42296;SDS011;28985;47.456;19.016;2022-10-31T14:34:40;180.50;;;172.98;;
42296;SDS011;28985;47.456;19.016;2022-10-31T14:42:28;197.02;;;188.68;;
42296;SDS011;28985;47.456;19.016;2022-10-31T14:48:09;180.60;;;173.13;;
42296;SDS011;28985;47.456;19.016;2022-10-31T14:50:47;179.15;;;171.70;;
42296;SDS011;28985;47.456;19.016;2022-10-31T14:53:27;188.15;;;180.52;;
42296;SDS011;28985;47.456;19.016;2022-10-31T14:55:57;175.82;;;168.43;;
42296;SDS011;28985;47.456;19.016;2022-10-31T14:58:37;180.57;;;173.17;;
42296;SDS011;28985;47.456;19.016;2022-10-31T15:01:06;184.60;;;177.05;;
42296;SDS011;28985;47.456;19.016;2022-10-31T15:03:35;184.27;;;176.45;;
42296;SDS011;28985;47.456;19.016;2022-10-31T15:06:14;179.50;;;172.10;;
42296;SDS011;28985;47.456;19.016;2022-10-31T15:08:46;181.90;;;174.57;;
42296;SDS011;28985;47.456;19.016;2022-10-31T15:11:19;181.35;;;173.90;;
42296;SDS011;28985;47.456;19.016;2022-10-31T15:16:23;176.70;;;169.10;;
42296;SDS011;28985;47.456;19.016;2022-10-31T15:18:54;184.30;;;176.13;;
42296;SDS011;28985;47.456;19.016;2022-10-31T15:21:24;182.82;;;174.57;;
42296;SDS011;28985;47.456;19.016;2022-10-31T15:23:55;185.48;;;177.68;;
42296;SDS011;28985;47.456;19.016;2022-10-31T15:26:32;184.48;;;176.85;;
42296;SDS011;28985;47.456;19.016;2022-10-31T15:29:16;185.27;;;177.27;;
42296;SDS011;28985;47.456;19.016;2022-10-31T15:37:02;180.05;;;172.25;;
42296;SDS011;28985;47.456;19.016;2022-10-31T15:39:29;190.90;;;182.48;;
42296;SDS011;28985;47.456;19.016;2022-10-31T15:41:56;182.18;;;174.30;;
42296;SDS011;28985;47.456;19.016;2022-10-31T15:44:31;188.32;;;179.90;;
42296;SDS011;28985;47.456;19.016;2022-10-31T15:47:06;191.00;;;182.95;;
42296;SDS011;28985;47.456;19.016;2022-10-31T15:49:49;178.85;;;171.05;;
42296;SDS011;28985;47.456;19.016;2022-10-31T15:55:02;190.60;;;182.55;;
42296;SDS011;28985;47.456;19.016;2022-10-31T15:57:29;193.43;;;185.13;;
42296;SDS011;28985;47.456;19.016;2022-10-31T15:59:57;193.43;;;185.18;;
42296;SDS011;28985;47.456;19.016;2022-10-31T16:02:25;194.40;;;186.18;;
42296;SDS011;28985;47.456;19.016;2022-10-31T16:04:54;194.07;;;185.93;;
42296;SDS011;28985;47.456;19.016;2022-10-31T16:07:22;195.45;;;187.10;;
42296;SDS011;28985;47.456;19.016;2022-10-31T16:12:19;188.55;;;180.73;;
42296;SDS011;28985;47.456;19.016;2022-10-31T16:14:48;191.32;;;183.15;;
42296;SDS011;28985;47.456;19.016;2022-10-31T16:17:16;191.65;;;183.52;;
42296;SDS011;28985;47.456;19.016;2022-10-31T16:19:48;196.02;;;187.57;;
42296;SDS011;28985;47.456;19.016;2022-10-31T16:22:30;187.35;;;179.25;;
42296;SDS011;28985;47.456;19.016;2022-10-31T16:25:09;184.75;;;177.00;;
42296;SDS011;28985;47.456;19.016;2022-10-31T16:27:38;186.02;;;178.25;;
42296;SDS011;28985;47.456;19.016;2022-10-31T16:32:55;192.15;;;183.95;;
42296;SDS011;28985;47.456;19.016;2022-10-31T16:37:53;191.82;;;183.65;;
42296;SDS011;28985;47.456;19.016;2022-10-31T16:40:20;197.25;;;188.80;;
42296;SDS011;28985;47.456;19.016;2022-10-31T16:42:47;201.30;;;192.55;;
42296;SDS011;28985;47.456;19.016;2022-10-31T16:45:18;196.48;;;188.20;;
42296;SDS011;28985;47.456;19.016;2022-10-31T16:47:46;195.38;;;186.98;;